aviador You're here:

KOGB Decoded Metar

ORANGEBURG in SC, USA
Report Time2018-02-25 10:53:00
UTC Time2018-02-25 11:23:40
Flight Rules vfr VFR
Wind210° at 05 kt
W.Decomp.*RWY 23: 4.9 kt HW 1.1 kt LCW
RWY 17: 3.4 kt HW 3.7 kt RCW
W.Rank210° ranks 3
Current wind is below 210° avg. (5.8)
Visibility9999 m
Phenomena:N/A
Clouds:N/A
Expected CloudBase > 400 ft AGL from Temp-Dew spread
CeilingNone
Temp17°C (ISA +2)
Dew Point16°C (94% RH)
QNH1019 hPa
Density Alt515 ft
Elevation194 ft
Report Wrong Elevation
Raw Report
METAR KOGB 251053Z AUTO 21005KT 10SM CLR 17/16 A3010 RMK AO2 SLP189
T01670156=

Extra information for KOGB:More info

Metar Taf Metar & Taf Last 4 Metars F.Rules Stats Wind Profile Meteogram Temp Stats Airport Information Weather charts Add Link Nearby VenuesMetar ALERT Operation Metar Decoded Social comments

AIRNAV info for KOGB